sensor_id;sensor_type;location;lat;lon;timestamp;P1;durP1;ratioP1;P2;durP2;ratioP2
37517;SDS011;23366;52.498;13.446;2023-01-08T00:01:48;6.70;;;3.00;;
37517;SDS011;23366;52.498;13.446;2023-01-08T00:04:14;5.43;;;2.90;;
37517;SDS011;23366;52.498;13.446;2023-01-08T00:06:42;4.28;;;2.70;;
37517;SDS011;23366;52.498;13.446;2023-01-08T00:09:08;4.60;;;2.45;;
37517;SDS011;23366;52.498;13.446;2023-01-08T00:11:34;6.20;;;3.20;;
37517;SDS011;23366;52.498;13.446;2023-01-08T00:14:00;6.40;;;3.80;;
37517;SDS011;23366;52.498;13.446;2023-01-08T00:16:25;3.83;;;2.80;;
37517;SDS011;23366;52.498;13.446;2023-01-08T00:18:51;4.28;;;2.55;;
37517;SDS011;23366;52.498;13.446;2023-01-08T00:21:17;4.55;;;2.60;;
37517;SDS011;23366;52.498;13.446;2023-01-08T00:23:42;6.90;;;2.60;;
37517;SDS011;23366;52.498;13.446;2023-01-08T00:26:09;6.65;;;3.03;;
37517;SDS011;23366;52.498;13.446;2023-01-08T00:28:35;4.35;;;2.60;;
37517;SDS011;23366;52.498;13.446;2023-01-08T00:31:04;4.90;;;2.70;;
37517;SDS011;23366;52.498;13.446;2023-01-08T00:33:31;6.18;;;3.15;;
37517;SDS011;23366;52.498;13.446;2023-01-08T00:35:57;2.80;;;2.45;;
37517;SDS011;23366;52.498;13.446;2023-01-08T00:38:26;8.73;;;3.00;;
37517;SDS011;23366;52.498;13.446;2023-01-08T00:40:52;3.47;;;2.70;;
37517;SDS011;23366;52.498;13.446;2023-01-08T00:43:18;4.05;;;2.83;;
37517;SDS011;23366;52.498;13.446;2023-01-08T00:45:43;3.83;;;2.50;;
37517;SDS011;23366;52.498;13.446;2023-01-08T00:48:09;3.13;;;2.40;;
37517;SDS011;23366;52.498;13.446;2023-01-08T00:50:35;2.97;;;2.30;;
37517;SDS011;23366;52.498;13.446;2023-01-08T00:53:01;7.97;;;2.80;;
37517;SDS011;23366;52.498;13.446;2023-01-08T00:55:27;5.25;;;2.72;;
37517;SDS011;23366;52.498;13.446;2023-01-08T00:57:53;4.40;;;2.92;;
37517;SDS011;23366;52.498;13.446;2023-01-08T01:00:20;3.97;;;2.67;;
37517;SDS011;23366;52.498;13.446;2023-01-08T01:02:45;4.57;;;2.60;;
37517;SDS011;23366;52.498;13.446;2023-01-08T01:05:12;4.13;;;2.55;;
37517;SDS011;23366;52.498;13.446;2023-01-08T01:07:39;5.53;;;3.00;;
37517;SDS011;23366;52.498;13.446;2023-01-08T01:10:06;4.82;;;2.90;;
37517;SDS011;23366;52.498;13.446;2023-01-08T01:12:31;4.38;;;3.08;;
37517;SDS011;23366;52.498;13.446;2023-01-08T01:14:57;4.28;;;2.75;;
37517;SDS011;23366;52.498;13.446;2023-01-08T01:17:22;5.28;;;2.85;;
37517;SDS011;23366;52.498;13.446;2023-01-08T01:19:48;3.10;;;2.40;;
37517;SDS011;23366;52.498;13.446;2023-01-08T01:22:14;6.38;;;4.10;;
37517;SDS011;23366;52.498;13.446;2023-01-08T01:24:39;4.70;;;2.75;;
37517;SDS011;23366;52.498;13.446;2023-01-08T01:27:05;5.60;;;3.20;;
37517;SDS011;23366;52.498;13.446;2023-01-08T01:29:30;6.93;;;2.65;;
37517;SDS011;23366;52.498;13.446;2023-01-08T01:31:55;5.95;;;3.08;;
37517;SDS011;23366;52.498;13.446;2023-01-08T01:34:21;6.03;;;3.08;;
37517;SDS011;23366;52.498;13.446;2023-01-08T01:36:47;4.45;;;3.25;;
37517;SDS011;23366;52.498;13.446;2023-01-08T01:39:12;4.05;;;2.67;;
37517;SDS011;23366;52.498;13.446;2023-01-08T01:46:59;3.92;;;2.97;;
37517;SDS011;23366;52.498;13.446;2023-01-08T01:49:26;6.25;;;3.45;;
37517;SDS011;23366;52.498;13.446;2023-01-08T01:51:54;7.45;;;3.03;;
37517;SDS011;23366;52.498;13.446;2023-01-08T01:54:21;5.10;;;2.63;;
37517;SDS011;23366;52.498;13.446;2023-01-08T01:56:47;3.38;;;2.58;;
37517;SDS011;23366;52.498;13.446;2023-01-08T01:59:13;8.13;;;3.75;;
37517;SDS011;23366;52.498;13.446;2023-01-08T02:01:40;4.60;;;3.25;;
37517;SDS011;23366;52.498;13.446;2023-01-08T02:04:08;7.80;;;4.05;;
37517;SDS011;23366;52.498;13.446;2023-01-08T02:06:37;6.57;;;3.30;;
37517;SDS011;23366;52.498;13.446;2023-01-08T02:09:16;5.72;;;3.95;;
37517;SDS011;23366;52.498;13.446;2023-01-08T02:12:10;10.52;;;4.65;;
37517;SDS011;23366;52.498;13.446;2023-01-08T02:31:24;6.35;;;3.80;;
37517;SDS011;23366;52.498;13.446;2023-01-08T02:33:51;3.35;;;3.05;;
37517;SDS011;23366;52.498;13.446;2023-01-08T02:36:21;23.58;;;5.43;;
37517;SDS011;23366;52.498;13.446;2023-01-08T02:41:44;7.65;;;4.68;;
37517;SDS011;23366;52.498;13.446;2023-01-08T02:44:19;4.47;;;3.58;;
37517;SDS011;23366;52.498;13.446;2023-01-08T02:46:55;9.00;;;4.50;;
37517;SDS011;23366;52.498;13.446;2023-01-08T02:49:26;5.72;;;3.50;;
37517;SDS011;23366;52.498;13.446;2023-01-08T02:51:55;7.45;;;4.30;;
37517;SDS011;23366;52.498;13.446;2023-01-08T02:54:23;5.32;;;3.97;;
37517;SDS011;23366;52.498;13.446;2023-01-08T02:56:54;4.45;;;3.50;;
37517;SDS011;23366;52.498;13.446;2023-01-08T02:59:28;6.80;;;4.05;;
37517;SDS011;23366;52.498;13.446;2023-01-08T03:01:56;6.50;;;4.00;;
37517;SDS011;23366;52.498;13.446;2023-01-08T03:04:23;5.80;;;3.47;;
37517;SDS011;23366;52.498;13.446;2023-01-08T03:06:49;7.18;;;4.65;;
37517;SDS011;23366;52.498;13.446;2023-01-08T03:09:15;8.70;;;4.65;;
37517;SDS011;23366;52.498;13.446;2023-01-08T03:12:04;5.70;;;3.65;;
37517;SDS011;23366;52.498;13.446;2023-01-08T03:17:17;6.43;;;4.05;;
37517;SDS011;23366;52.498;13.446;2023-01-08T03:19:55;8.07;;;4.47;;
37517;SDS011;23366;52.498;13.446;2023-01-08T03:22:24;6.68;;;3.90;;
37517;SDS011;23366;52.498;13.446;2023-01-08T03:24:52;7.13;;;3.67;;
37517;SDS011;23366;52.498;13.446;2023-01-08T03:27:23;6.38;;;4.07;;
37517;SDS011;23366;52.498;13.446;2023-01-08T03:29:53;7.07;;;3.72;;
37517;SDS011;23366;52.498;13.446;2023-01-08T03:32:22;10.18;;;4.88;;
37517;SDS011;23366;52.498;13.446;2023-01-08T03:34:49;4.70;;;4.20;;
37517;SDS011;23366;52.498;13.446;2023-01-08T03:37:18;4.75;;;4.28;;
37517;SDS011;23366;52.498;13.446;2023-01-08T03:39:51;7.88;;;4.43;;
37517;SDS011;23366;52.498;13.446;2023-01-08T03:42:24;6.60;;;4.22;;
37517;SDS011;23366;52.498;13.446;2023-01-08T03:44:51;9.93;;;4.47;;
37517;SDS011;23366;52.498;13.446;2023-01-08T03:47:17;10.50;;;5.05;;
37517;SDS011;23366;52.498;13.446;2023-01-08T03:49:44;10.57;;;5.15;;
37517;SDS011;23366;52.498;13.446;2023-01-08T03:52:22;10.23;;;5.85;;
37517;SDS011;23366;52.498;13.446;2023-01-08T03:54:49;9.45;;;5.43;;
37517;SDS011;23366;52.498;13.446;2023-01-08T03:57:15;6.22;;;4.05;;
37517;SDS011;23366;52.498;13.446;2023-01-08T03:59:40;7.57;;;4.82;;
37517;SDS011;23366;52.498;13.446;2023-01-08T04:02:06;6.80;;;3.80;;
37517;SDS011;23366;52.498;13.446;2023-01-08T04:04:31;4.93;;;3.40;;
37517;SDS011;23366;52.498;13.446;2023-01-08T04:06:57;9.13;;;4.72;;
37517;SDS011;23366;52.498;13.446;2023-01-08T04:09:22;7.50;;;3.88;;
37517;SDS011;23366;52.498;13.446;2023-01-08T04:11:48;8.60;;;4.45;;
37517;SDS011;23366;52.498;13.446;2023-01-08T04:14:13;8.77;;;4.55;;
37517;SDS011;23366;52.498;13.446;2023-01-08T04:16:39;5.22;;;4.07;;
37517;SDS011;23366;52.498;13.446;2023-01-08T04:19:04;8.30;;;5.13;;
37517;SDS011;23366;52.498;13.446;2023-01-08T04:21:30;5.40;;;3.63;;
37517;SDS011;23366;52.498;13.446;2023-01-08T04:23:55;13.43;;;6.72;;
37517;SDS011;23366;52.498;13.446;2023-01-08T04:26:21;10.88;;;4.60;;
37517;SDS011;23366;52.498;13.446;2023-01-08T04:28:46;4.72;;;3.33;;
37517;SDS011;23366;52.498;13.446;2023-01-08T04:31:12;8.48;;;4.72;;
37517;SDS011;23366;52.498;13.446;2023-01-08T04:33:37;5.10;;;4.35;;
37517;SDS011;23366;52.498;13.446;2023-01-08T04:36:03;6.57;;;4.65;;
37517;SDS011;23366;52.498;13.446;2023-01-08T04:38:29;7.85;;;4.90;;
37517;SDS011;23366;52.498;13.446;2023-01-08T04:40:58;8.30;;;4.93;;
37517;SDS011;23366;52.498;13.446;2023-01-08T04:43:24;7.55;;;4.82;;
37517;SDS011;23366;52.498;13.446;2023-01-08T04:45:50;7.30;;;4.22;;
37517;SDS011;23366;52.498;13.446;2023-01-08T04:48:16;16.20;;;5.18;;
37517;SDS011;23366;52.498;13.446;2023-01-08T04:50:41;7.03;;;5.28;;
37517;SDS011;23366;52.498;13.446;2023-01-08T04:53:07;15.18;;;4.63;;
37517;SDS011;23366;52.498;13.446;2023-01-08T04:55:32;6.72;;;4.90;;
37517;SDS011;23366;52.498;13.446;2023-01-08T04:57:58;9.43;;;4.97;;
37517;SDS011;23366;52.498;13.446;2023-01-08T05:00:24;6.18;;;4.40;;
37517;SDS011;23366;52.498;13.446;2023-01-08T05:02:49;8.30;;;4.38;;
37517;SDS011;23366;52.498;13.446;2023-01-08T05:05:15;4.93;;;3.50;;
37517;SDS011;23366;52.498;13.446;2023-01-08T05:07:40;11.00;;;4.95;;
37517;SDS011;23366;52.498;13.446;2023-01-08T05:13:28;6.25;;;4.30;;
37517;SDS011;23366;52.498;13.446;2023-01-08T05:15:57;6.22;;;4.65;;
37517;SDS011;23366;52.498;13.446;2023-01-08T05:18:23;7.82;;;4.55;;
37517;SDS011;23366;52.498;13.446;2023-01-08T05:20:48;6.35;;;4.05;;
37517;SDS011;23366;52.498;13.446;2023-01-08T05:23:14;6.55;;;4.03;;
37517;SDS011;23366;52.498;13.446;2023-01-08T05:25:39;6.35;;;4.07;;
37517;SDS011;23366;52.498;13.446;2023-01-08T05:28:05;8.88;;;4.43;;
37517;SDS011;23366;52.498;13.446;2023-01-08T05:30:30;5.70;;;3.95;;
37517;SDS011;23366;52.498;13.446;2023-01-08T05:32:56;6.47;;;4.22;;
37517;SDS011;23366;52.498;13.446;2023-01-08T05:35:21;7.72;;;4.65;;
37517;SDS011;23366;52.498;13.446;2023-01-08T05:37:47;8.25;;;4.80;;
37517;SDS011;23366;52.498;13.446;2023-01-08T05:40:12;9.98;;;4.57;;
37517;SDS011;23366;52.498;13.446;2023-01-08T05:42:39;6.05;;;4.07;;
37517;SDS011;23366;52.498;13.446;2023-01-08T05:45:05;7.53;;;4.32;;
37517;SDS011;23366;52.498;13.446;2023-01-08T05:47:32;8.02;;;4.85;;
37517;SDS011;23366;52.498;13.446;2023-01-08T05:49:58;8.68;;;4.78;;
37517;SDS011;23366;52.498;13.446;2023-01-08T05:52:24;6.10;;;4.65;;
37517;SDS011;23366;52.498;13.446;2023-01-08T05:54:50;5.82;;;3.90;;
37517;SDS011;23366;52.498;13.446;2023-01-08T05:57:15;7.00;;;4.45;;
37517;SDS011;23366;52.498;13.446;2023-01-08T05:59:41;7.93;;;3.78;;
37517;SDS011;23366;52.498;13.446;2023-01-08T06:02:07;9.25;;;3.97;;
37517;SDS011;23366;52.498;13.446;2023-01-08T06:04:33;7.38;;;4.38;;
37517;SDS011;23366;52.498;13.446;2023-01-08T06:06:58;5.43;;;3.70;;
37517;SDS011;23366;52.498;13.446;2023-01-08T06:09:24;7.18;;;4.10;;
37517;SDS011;23366;52.498;13.446;2023-01-08T06:11:49;5.25;;;3.72;;
37517;SDS011;23366;52.498;13.446;2023-01-08T06:14:15;5.78;;;3.45;;
37517;SDS011;23366;52.498;13.446;2023-01-08T06:16:43;6.30;;;3.67;;
37517;SDS011;23366;52.498;13.446;2023-01-08T06:19:09;6.10;;;3.17;;
37517;SDS011;23366;52.498;13.446;2023-01-08T06:21:35;6.65;;;4.05;;
37517;SDS011;23366;52.498;13.446;2023-01-08T06:24:01;8.75;;;4.72;;
37517;SDS011;23366;52.498;13.446;2023-01-08T06:26:27;5.20;;;3.85;;
37517;SDS011;23366;52.498;13.446;2023-01-08T06:28:52;5.70;;;3.33;;
37517;SDS011;23366;52.498;13.446;2023-01-08T06:31:18;5.32;;;4.22;;
37517;SDS011;23366;52.498;13.446;2023-01-08T06:33:43;4.60;;;2.97;;
37517;SDS011;23366;52.498;13.446;2023-01-08T06:36:09;6.32;;;3.40;;
37517;SDS011;23366;52.498;13.446;2023-01-08T06:38:35;3.40;;;2.88;;
37517;SDS011;23366;52.498;13.446;2023-01-08T06:41:04;4.00;;;2.90;;
37517;SDS011;23366;52.498;13.446;2023-01-08T06:43:33;6.13;;;3.80;;
37517;SDS011;23366;52.498;13.446;2023-01-08T06:45:58;6.55;;;3.35;;
37517;SDS011;23366;52.498;13.446;2023-01-08T06:48:24;5.68;;;3.30;;
37517;SDS011;23366;52.498;13.446;2023-01-08T06:50:50;7.45;;;3.72;;
37517;SDS011;23366;52.498;13.446;2023-01-08T06:53:16;5.07;;;2.97;;
37517;SDS011;23366;52.498;13.446;2023-01-08T06:55:42;3.75;;;3.10;;
37517;SDS011;23366;52.498;13.446;2023-01-08T06:58:08;5.63;;;3.45;;
37517;SDS011;23366;52.498;13.446;2023-01-08T07:00:36;5.55;;;3.35;;
37517;SDS011;23366;52.498;13.446;2023-01-08T07:03:02;5.75;;;3.50;;
37517;SDS011;23366;52.498;13.446;2023-01-08T07:05:28;5.03;;;3.05;;
37517;SDS011;23366;52.498;13.446;2023-01-08T07:07:53;4.95;;;3.78;;
37517;SDS011;23366;52.498;13.446;2023-01-08T07:10:19;4.65;;;3.17;;
37517;SDS011;23366;52.498;13.446;2023-01-08T07:12:44;5.07;;;3.17;;
37517;SDS011;23366;52.498;13.446;2023-01-08T07:15:10;4.25;;;3.13;;
37517;SDS011;23366;52.498;13.446;2023-01-08T07:17:35;5.00;;;2.75;;
37517;SDS011;23366;52.498;13.446;2023-01-08T07:20:01;5.10;;;3.13;;
37517;SDS011;23366;52.498;13.446;2023-01-08T07:22:26;6.75;;;4.43;;
37517;SDS011;23366;52.498;13.446;2023-01-08T07:24:52;3.88;;;2.88;;
37517;SDS011;23366;52.498;13.446;2023-01-08T07:27:18;6.15;;;3.35;;
37517;SDS011;23366;52.498;13.446;2023-01-08T07:29:43;4.03;;;2.90;;
37517;SDS011;23366;52.498;13.446;2023-01-08T07:32:09;4.13;;;2.75;;
37517;SDS011;23366;52.498;13.446;2023-01-08T07:34:34;4.90;;;2.90;;
37517;SDS011;23366;52.498;13.446;2023-01-08T07:37:00;4.20;;;3.13;;
37517;SDS011;23366;52.498;13.446;2023-01-08T07:39:26;4.38;;;3.20;;
37517;SDS011;23366;52.498;13.446;2023-01-08T07:41:51;4.07;;;2.67;;
37517;SDS011;23366;52.498;13.446;2023-01-08T07:44:17;4.82;;;3.38;;
37517;SDS011;23366;52.498;13.446;2023-01-08T07:46:42;6.18;;;3.20;;
37517;SDS011;23366;52.498;13.446;2023-01-08T07:49:08;4.25;;;3.58;;
37517;SDS011;23366;52.498;13.446;2023-01-08T07:51:33;4.50;;;2.90;;
37517;SDS011;23366;52.498;13.446;2023-01-08T07:53:59;4.60;;;3.15;;
37517;SDS011;23366;52.498;13.446;2023-01-08T07:56:25;6.28;;;3.30;;
37517;SDS011;23366;52.498;13.446;2023-01-08T07:58:50;5.82;;;3.45;;
37517;SDS011;23366;52.498;13.446;2023-01-08T08:01:16;4.68;;;2.70;;
37517;SDS011;23366;52.498;13.446;2023-01-08T08:03:42;3.65;;;3.15;;
37517;SDS011;23366;52.498;13.446;2023-01-08T08:06:07;4.10;;;3.17;;
37517;SDS011;23366;52.498;13.446;2023-01-08T08:08:33;6.22;;;3.58;;
37517;SDS011;23366;52.498;13.446;2023-01-08T08:10:59;4.57;;;3.40;;
37517;SDS011;23366;52.498;13.446;2023-01-08T08:13:25;6.03;;;3.90;;
37517;SDS011;23366;52.498;13.446;2023-01-08T08:15:51;5.05;;;3.50;;
37517;SDS011;23366;52.498;13.446;2023-01-08T08:18:16;5.50;;;3.63;;
37517;SDS011;23366;52.498;13.446;2023-01-08T08:20:42;5.93;;;3.92;;
37517;SDS011;23366;52.498;13.446;2023-01-08T08:23:08;6.60;;;4.13;;
37517;SDS011;23366;52.498;13.446;2023-01-08T08:25:39;8.35;;;3.67;;
37517;SDS011;23366;52.498;13.446;2023-01-08T08:28:05;4.88;;;3.40;;
37517;SDS011;23366;52.498;13.446;2023-01-08T08:30:33;5.78;;;3.17;;
37517;SDS011;23366;52.498;13.446;2023-01-08T08:32:59;6.07;;;3.55;;
37517;SDS011;23366;52.498;13.446;2023-01-08T08:35:26;4.80;;;3.20;;
37517;SDS011;23366;52.498;13.446;2023-01-08T08:37:52;4.03;;;3.15;;
37517;SDS011;23366;52.498;13.446;2023-01-08T08:40:18;7.55;;;3.53;;
37517;SDS011;23366;52.498;13.446;2023-01-08T08:42:44;6.05;;;3.35;;
37517;SDS011;23366;52.498;13.446;2023-01-08T08:45:10;5.82;;;3.63;;
37517;SDS011;23366;52.498;13.446;2023-01-08T08:47:35;6.18;;;3.95;;
37517;SDS011;23366;52.498;13.446;2023-01-08T08:50:01;4.82;;;3.15;;
37517;SDS011;23366;52.498;13.446;2023-01-08T08:52:28;4.82;;;3.25;;
37517;SDS011;23366;52.498;13.446;2023-01-08T08:54:54;6.55;;;3.55;;
37517;SDS011;23366;52.498;13.446;2023-01-08T08:57:21;5.82;;;3.25;;
37517;SDS011;23366;52.498;13.446;2023-01-08T08:59:50;5.80;;;3.60;;
37517;SDS011;23366;52.498;13.446;2023-01-08T09:02:16;5.70;;;3.10;;
37517;SDS011;23366;52.498;13.446;2023-01-08T09:04:42;7.43;;;3.40;;
37517;SDS011;23366;52.498;13.446;2023-01-08T09:07:07;4.82;;;3.15;;
37517;SDS011;23366;52.498;13.446;2023-01-08T09:09:33;4.03;;;2.53;;
37517;SDS011;23366;52.498;13.446;2023-01-08T09:11:58;4.20;;;2.55;;
37517;SDS011;23366;52.498;13.446;2023-01-08T09:14:24;5.90;;;2.55;;
37517;SDS011;23366;52.498;13.446;2023-01-08T09:16:50;5.47;;;2.88;;
37517;SDS011;23366;52.498;13.446;2023-01-08T09:19:15;4.43;;;3.47;;
37517;SDS011;23366;52.498;13.446;2023-01-08T09:21:41;3.67;;;3.20;;
37517;SDS011;23366;52.498;13.446;2023-01-08T09:24:07;4.32;;;2.95;;
37517;SDS011;23366;52.498;13.446;2023-01-08T09:26:33;5.32;;;3.55;;
37517;SDS011;23366;52.498;13.446;2023-01-08T09:28:58;4.30;;;2.70;;
37517;SDS011;23366;52.498;13.446;2023-01-08T09:31:24;4.25;;;2.90;;
37517;SDS011;23366;52.498;13.446;2023-01-08T09:33:50;6.55;;;3.47;;
37517;SDS011;23366;52.498;13.446;2023-01-08T09:36:16;5.22;;;2.85;;
37517;SDS011;23366;52.498;13.446;2023-01-08T09:38:42;6.55;;;3.63;;
37517;SDS011;23366;52.498;13.446;2023-01-08T09:41:19;6.25;;;3.33;;
37517;SDS011;23366;52.498;13.446;2023-01-08T09:43:48;4.22;;;3.22;;
37517;SDS011;23366;52.498;13.446;2023-01-08T09:46:17;4.25;;;3.00;;
37517;SDS011;23366;52.498;13.446;2023-01-08T09:48:45;3.85;;;2.42;;
37517;SDS011;23366;52.498;13.446;2023-01-08T09:51:13;3.63;;;3.28;;
37517;SDS011;23366;52.498;13.446;2023-01-08T09:53:41;4.85;;;3.20;;
37517;SDS011;23366;52.498;13.446;2023-01-08T09:56:17;4.28;;;2.63;;
37517;SDS011;23366;52.498;13.446;2023-01-08T09:58:44;4.97;;;3.13;;
37517;SDS011;23366;52.498;13.446;2023-01-08T10:01:26;4.43;;;2.72;;
37517;SDS011;23366;52.498;13.446;2023-01-08T10:03:59;4.95;;;3.22;;
37517;SDS011;23366;52.498;13.446;2023-01-08T10:06:32;3.08;;;2.13;;
37517;SDS011;23366;52.498;13.446;2023-01-08T10:08:58;3.85;;;2.50;;
37517;SDS011;23366;52.498;13.446;2023-01-08T10:11:25;5.43;;;2.63;;
37517;SDS011;23366;52.498;13.446;2023-01-08T10:13:59;2.83;;;2.38;;
37517;SDS011;23366;52.498;13.446;2023-01-08T10:16:28;2.72;;;2.22;;
37517;SDS011;23366;52.498;13.446;2023-01-08T10:18:58;5.45;;;3.42;;
37517;SDS011;23366;52.498;13.446;2023-01-08T10:21:27;7.70;;;3.95;;
37517;SDS011;23366;52.498;13.446;2023-01-08T10:23:55;4.32;;;2.85;;
37517;SDS011;23366;52.498;13.446;2023-01-08T10:26:34;4.53;;;3.08;;
37517;SDS011;23366;52.498;13.446;2023-01-08T10:29:08;3.65;;;2.33;;
37517;SDS011;23366;52.498;13.446;2023-01-08T10:31:37;6.70;;;3.70;;
37517;SDS011;23366;52.498;13.446;2023-01-08T10:34:26;8.85;;;3.85;;
37517;SDS011;23366;52.498;13.446;2023-01-08T10:36:57;5.88;;;3.28;;
37517;SDS011;23366;52.498;13.446;2023-01-08T10:39:24;7.18;;;3.90;;
37517;SDS011;23366;52.498;13.446;2023-01-08T10:41:52;4.35;;;3.03;;
37517;SDS011;23366;52.498;13.446;2023-01-08T10:44:20;7.07;;;3.83;;
37517;SDS011;23366;52.498;13.446;2023-01-08T10:46:48;6.30;;;3.63;;
37517;SDS011;23366;52.498;13.446;2023-01-08T10:49:23;5.78;;;3.53;;
37517;SDS011;23366;52.498;13.446;2023-01-08T10:52:18;6.82;;;3.78;;
37517;SDS011;23366;52.498;13.446;2023-01-08T10:54:52;6.72;;;4.00;;
37517;SDS011;23366;52.498;13.446;2023-01-08T10:57:19;6.72;;;4.22;;
37517;SDS011;23366;52.498;13.446;2023-01-08T10:59:49;7.15;;;3.60;;
37517;SDS011;23366;52.498;13.446;2023-01-08T11:05:05;9.43;;;4.63;;
37517;SDS011;23366;52.498;13.446;2023-01-08T11:07:34;7.68;;;3.97;;
37517;SDS011;23366;52.498;13.446;2023-01-08T11:10:01;6.85;;;3.97;;
37517;SDS011;23366;52.498;13.446;2023-01-08T11:12:33;6.28;;;4.05;;
37517;SDS011;23366;52.498;13.446;2023-01-08T11:17:39;9.60;;;4.25;;
37517;SDS011;23366;52.498;13.446;2023-01-08T11:20:09;7.38;;;4.25;;
37517;SDS011;23366;52.498;13.446;2023-01-08T11:22:48;6.90;;;4.75;;
37517;SDS011;23366;52.498;13.446;2023-01-08T11:25:18;7.97;;;4.05;;
37517;SDS011;23366;52.498;13.446;2023-01-08T11:27:50;8.30;;;4.55;;
37517;SDS011;23366;52.498;13.446;2023-01-08T11:30:18;5.97;;;3.97;;
37517;SDS011;23366;52.498;13.446;2023-01-08T11:32:52;7.90;;;5.25;;
37517;SDS011;23366;52.498;13.446;2023-01-08T11:35:25;6.97;;;4.05;;
37517;SDS011;23366;52.498;13.446;2023-01-08T11:38:00;13.80;;;5.28;;
37517;SDS011;23366;52.498;13.446;2023-01-08T12:08:04;11.55;;;5.43;;
37517;SDS011;23366;52.498;13.446;2023-01-08T12:16:26;10.73;;;5.00;;
37517;SDS011;23366;52.498;13.446;2023-01-08T12:19:22;4.75;;;3.45;;
37517;SDS011;23366;52.498;13.446;2023-01-08T12:33:47;10.43;;;4.55;;
37517;SDS011;23366;52.498;13.446;2023-01-08T12:36:28;8.70;;;6.45;;
37517;SDS011;23366;52.498;13.446;2023-01-08T12:39:03;8.05;;;4.30;;
37517;SDS011;23366;52.498;13.446;2023-01-08T12:41:34;6.80;;;4.28;;
37517;SDS011;23366;52.498;13.446;2023-01-08T12:44:03;7.28;;;3.80;;
37517;SDS011;23366;52.498;13.446;2023-01-08T12:46:34;4.72;;;3.15;;
37517;SDS011;23366;52.498;13.446;2023-01-08T12:49:05;5.20;;;3.53;;
37517;SDS011;23366;52.498;13.446;2023-01-08T12:51:51;6.47;;;4.45;;
37517;SDS011;23366;52.498;13.446;2023-01-08T12:54:34;7.20;;;4.57;;
37517;SDS011;23366;52.498;13.446;2023-01-08T13:07:48;6.85;;;4.20;;
37517;SDS011;23366;52.498;13.446;2023-01-08T13:10:38;9.63;;;4.10;;
37517;SDS011;23366;52.498;13.446;2023-01-08T13:18:55;9.35;;;3.70;;
37517;SDS011;23366;52.498;13.446;2023-01-08T13:21:36;5.35;;;3.28;;
37517;SDS011;23366;52.498;13.446;2023-01-08T13:25:06;6.00;;;3.13;;
37517;SDS011;23366;52.498;13.446;2023-01-08T13:26:56;9.77;;;5.47;;
37517;SDS011;23366;52.498;13.446;2023-01-08T13:29:40;8.85;;;4.18;;
37517;SDS011;23366;52.498;13.446;2023-01-08T13:37:41;6.72;;;4.15;;
37517;SDS011;23366;52.498;13.446;2023-01-08T13:46:02;7.32;;;4.22;;
37517;SDS011;23366;52.498;13.446;2023-01-08T13:48:35;5.53;;;4.00;;
37517;SDS011;23366;52.498;13.446;2023-01-08T13:51:03;8.00;;;4.57;;
37517;SDS011;23366;52.498;13.446;2023-01-08T13:53:29;7.03;;;4.35;;
37517;SDS011;23366;52.498;13.446;2023-01-08T13:58:33;6.18;;;4.15;;
37517;SDS011;23366;52.498;13.446;2023-01-08T14:03:28;7.72;;;4.50;;
37517;SDS011;23366;52.498;13.446;2023-01-08T14:06:05;4.68;;;3.65;;
37517;SDS011;23366;52.498;13.446;2023-01-08T14:08:48;7.75;;;4.97;;
37517;SDS011;23366;52.498;13.446;2023-01-08T14:11:15;10.10;;;5.18;;
37517;SDS011;23366;52.498;13.446;2023-01-08T14:13:42;8.73;;;5.03;;
37517;SDS011;23366;52.498;13.446;2023-01-08T14:16:10;7.43;;;4.82;;
37517;SDS011;23366;52.498;13.446;2023-01-08T14:18:42;12.43;;;5.60;;
37517;SDS011;23366;52.498;13.446;2023-01-08T14:21:09;9.52;;;5.32;;
37517;SDS011;23366;52.498;13.446;2023-01-08T14:23:36;9.68;;;5.78;;
37517;SDS011;23366;52.498;13.446;2023-01-08T14:26:05;13.20;;;7.93;;
37517;SDS011;23366;52.498;13.446;2023-01-08T14:28:32;6.05;;;4.25;;
37517;SDS011;23366;52.498;13.446;2023-01-08T14:30:59;15.82;;;6.43;;
37517;SDS011;23366;52.498;13.446;2023-01-08T14:33:28;8.38;;;5.72;;
37517;SDS011;23366;52.498;13.446;2023-01-08T14:35:57;10.30;;;5.75;;
37517;SDS011;23366;52.498;13.446;2023-01-08T14:38:24;9.00;;;5.93;;
37517;SDS011;23366;52.498;13.446;2023-01-08T14:40:56;7.47;;;5.05;;
37517;SDS011;23366;52.498;13.446;2023-01-08T14:43:38;10.68;;;6.88;;
37517;SDS011;23366;52.498;13.446;2023-01-08T14:48:53;10.80;;;6.40;;
37517;SDS011;23366;52.498;13.446;2023-01-08T14:51:21;11.07;;;5.30;;
37517;SDS011;23366;52.498;13.446;2023-01-08T14:53:53;8.27;;;5.32;;
37517;SDS011;23366;52.498;13.446;2023-01-08T14:56:26;11.85;;;7.05;;
37517;SDS011;23366;52.498;13.446;2023-01-08T14:58:56;13.77;;;7.45;;
37517;SDS011;23366;52.498;13.446;2023-01-08T15:01:26;14.30;;;6.72;;
37517;SDS011;23366;52.498;13.446;2023-01-08T15:07:03;11.55;;;7.15;;
37517;SDS011;23366;52.498;13.446;2023-01-08T15:09:56;11.90;;;7.28;;
37517;SDS011;23366;52.498;13.446;2023-01-08T15:12:24;11.65;;;7.68;;
37517;SDS011;23366;52.498;13.446;2023-01-08T15:14:51;13.45;;;6.60;;
37517;SDS011;23366;52.498;13.446;2023-01-08T15:17:19;10.20;;;6.50;;
37517;SDS011;23366;52.498;13.446;2023-01-08T15:19:47;11.45;;;6.80;;
37517;SDS011;23366;52.498;13.446;2023-01-08T15:22:18;10.30;;;6.57;;
37517;SDS011;23366;52.498;13.446;2023-01-08T15:24:56;9.90;;;6.68;;
37517;SDS011;23366;52.498;13.446;2023-01-08T15:27:24;23.75;;;8.32;;
37517;SDS011;23366;52.498;13.446;2023-01-08T15:29:52;8.63;;;5.78;;
37517;SDS011;23366;52.498;13.446;2023-01-08T15:32:27;11.50;;;7.82;;
37517;SDS011;23366;52.498;13.446;2023-01-08T15:34:58;14.93;;;7.68;;
37517;SDS011;23366;52.498;13.446;2023-01-08T15:37:25;17.30;;;8.05;;
37517;SDS011;23366;52.498;13.446;2023-01-08T15:39:51;13.50;;;7.95;;
37517;SDS011;23366;52.498;13.446;2023-01-08T15:45:12;14.18;;;7.30;;
37517;SDS011;23366;52.498;13.446;2023-01-08T15:47:42;12.45;;;7.75;;
37517;SDS011;23366;52.498;13.446;2023-01-08T15:50:08;13.52;;;7.55;;
37517;SDS011;23366;52.498;13.446;2023-01-08T15:52:34;10.15;;;6.95;;
37517;SDS011;23366;52.498;13.446;2023-01-08T15:55:02;16.25;;;8.75;;
37517;SDS011;23366;52.498;13.446;2023-01-08T15:57:28;16.55;;;8.10;;
37517;SDS011;23366;52.498;13.446;2023-01-08T15:59:56;15.13;;;8.23;;
37517;SDS011;23366;52.498;13.446;2023-01-08T16:02:22;13.80;;;8.10;;
37517;SDS011;23366;52.498;13.446;2023-01-08T16:04:51;15.55;;;8.68;;
37517;SDS011;23366;52.498;13.446;2023-01-08T16:07:18;15.07;;;8.07;;
37517;SDS011;23366;52.498;13.446;2023-01-08T16:09:43;14.88;;;7.95;;
37517;SDS011;23366;52.498;13.446;2023-01-08T16:12:09;14.55;;;7.68;;
37517;SDS011;23366;52.498;13.446;2023-01-08T16:14:34;11.57;;;8.05;;
37517;SDS011;23366;52.498;13.446;2023-01-08T16:17:02;12.23;;;8.00;;
37517;SDS011;23366;52.498;13.446;2023-01-08T16:19:29;13.23;;;7.90;;
37517;SDS011;23366;52.498;13.446;2023-01-08T16:21:55;15.02;;;8.45;;
37517;SDS011;23366;52.498;13.446;2023-01-08T16:24:21;19.15;;;10.18;;
37517;SDS011;23366;52.498;13.446;2023-01-08T16:26:47;17.52;;;7.88;;
37517;SDS011;23366;52.498;13.446;2023-01-08T16:29:13;13.05;;;8.38;;
37517;SDS011;23366;52.498;13.446;2023-01-08T16:31:38;14.00;;;7.43;;
37517;SDS011;23366;52.498;13.446;2023-01-08T16:34:08;13.98;;;8.38;;
37517;SDS011;23366;52.498;13.446;2023-01-08T16:36:34;12.77;;;7.78;;
37517;SDS011;23366;52.498;13.446;2023-01-08T16:39:00;12.63;;;7.55;;
37517;SDS011;23366;52.498;13.446;2023-01-08T16:41:26;12.07;;;7.85;;
37517;SDS011;23366;52.498;13.446;2023-01-08T16:43:51;10.27;;;6.82;;